createdAt,value
2019-03-20T00:00:10.538Z,16.20
2019-03-20T00:02:40.455Z,16.17
2019-03-20T00:05:08.832Z,16.47
2019-03-20T00:07:37.099Z,21.33
2019-03-20T00:10:06.244Z,22.93
2019-03-20T00:12:34.349Z,11.60
2019-03-20T00:15:04.471Z,16.73
2019-03-20T00:17:32.667Z,15.43
2019-03-20T00:20:00.930Z,10.47
2019-03-20T00:22:29.073Z,15.13
2019-03-20T00:24:57.198Z,18.63
2019-03-20T00:27:25.271Z,15.57
2019-03-20T00:29:53.296Z,19.50
2019-03-20T00:32:21.844Z,15.93
2019-03-20T00:35:00.352Z,14.27
2019-03-20T00:37:20.146Z,13.13
2019-03-20T00:39:48.260Z,15.63
2019-03-20T00:42:16.505Z,12.13
2019-03-20T00:44:44.519Z,16.27
2019-03-20T00:47:12.695Z,18.63
2019-03-20T00:49:41.807Z,13.93
2019-03-20T00:52:09.886Z,19.13
2019-03-20T00:54:38.000Z,16.47
2019-03-20T00:57:06.076Z,17.17
2019-03-20T00:59:34.205Z,17.93
2019-03-20T01:02:02.221Z,15.90
2019-03-20T01:04:30.318Z,16.43
2019-03-20T01:19:14.382Z,14.07
2019-03-20T01:21:42.413Z,11.23
2019-03-20T01:24:10.454Z,14.70
2019-03-20T01:26:38.456Z,13.73
2019-03-20T01:29:06.570Z,15.00
2019-03-20T01:31:34.582Z,12.53
2019-03-20T01:34:02.601Z,9.47
2019-03-20T01:36:30.686Z,15.10
2019-03-20T01:38:58.785Z,13.30
2019-03-20T01:41:37.412Z,10.53
2019-03-20T01:43:56.887Z,15.20
2019-03-20T01:46:24.977Z,14.13
2019-03-20T01:48:53.012Z,14.63
2019-03-20T01:51:21.585Z,11.73
2019-03-20T01:53:50.627Z,13.50
2019-03-20T01:56:18.873Z,12.27
2019-03-20T01:58:48.165Z,12.70
2019-03-20T02:01:16.313Z,13.93
2019-03-20T02:03:44.377Z,12.10
2019-03-20T02:06:12.552Z,7.63
2019-03-20T02:08:40.839Z,12.23
2019-03-20T02:11:08.975Z,12.37
2019-03-20T02:13:39.096Z,12.93
2019-03-20T02:16:07.140Z,10.47
2019-03-20T02:18:35.304Z,12.67
2019-03-20T02:21:03.422Z,19.30
2019-03-20T02:23:31.478Z,9.03
2019-03-20T02:25:59.541Z,8.63
2019-03-20T02:28:27.672Z,13.73
2019-03-20T02:30:55.892Z,14.00
2019-03-20T02:33:25.097Z,9.77
2019-03-20T02:35:53.236Z,12.40
2019-03-20T02:38:21.356Z,8.63
2019-03-20T02:40:49.473Z,11.70
2019-03-20T02:43:17.555Z,16.57
2019-03-20T02:45:45.600Z,11.77
2019-03-20T02:48:13.807Z,11.40
2019-03-20T02:50:42.002Z,10.17
2019-03-20T02:53:10.051Z,8.77
2019-03-20T02:55:38.218Z,15.87
2019-03-20T02:58:06.493Z,16.87
2019-03-20T03:00:34.664Z,13.97
2019-03-20T03:03:02.922Z,13.23
2019-03-20T03:05:31.000Z,17.40
2019-03-20T03:07:59.183Z,14.27
2019-03-20T03:10:27.288Z,15.83
2019-03-20T03:12:55.387Z,16.07
2019-03-20T03:15:23.402Z,24.27
2019-03-20T03:17:51.641Z,19.37
2019-03-20T03:20:19.662Z,21.13
2019-03-20T03:22:47.709Z,23.43
2019-03-20T03:25:15.824Z,26.80
2019-03-20T03:27:46.739Z,20.53
2019-03-20T03:30:15.103Z,22.27
2019-03-20T03:32:44.406Z,24.63
2019-03-20T03:35:17.274Z,21.83
2019-03-20T03:37:43.701Z,23.03
2019-03-20T03:40:12.349Z,21.43
2019-03-20T03:42:40.745Z,24.93
2019-03-20T03:45:10.263Z,23.87
2019-03-20T03:47:39.369Z,20.87
2019-03-20T03:50:08.061Z,18.33
2019-03-20T03:52:36.188Z,19.50
2019-03-20T03:55:04.797Z,18.90
2019-03-20T03:57:33.124Z,20.07
2019-03-20T04:00:01.496Z,20.17
2019-03-20T04:02:29.726Z,22.90
2019-03-20T04:05:02.034Z,21.17
2019-03-20T04:07:30.315Z,20.13
2019-03-20T04:09:58.448Z,19.97
2019-03-20T04:12:26.786Z,20.50
2019-03-20T04:14:54.966Z,22.57
2019-03-20T04:17:27.701Z,23.67
2019-03-20T04:19:55.849Z,20.17
2019-03-20T04:22:23.924Z,23.07
2019-03-20T04:24:52.098Z,24.23
2019-03-20T04:27:20.376Z,20.97
2019-03-20T04:29:48.458Z,25.37
2019-03-20T04:32:16.485Z,24.10
2019-03-20T04:34:44.581Z,21.00
2019-03-20T04:37:12.672Z,25.97
2019-03-20T04:39:40.786Z,25.13
2019-03-20T04:42:08.909Z,26.70
2019-03-20T04:44:37.003Z,26.67
2019-03-20T04:47:05.328Z,30.43
2019-03-20T04:49:33.381Z,24.67
2019-03-20T04:52:02.713Z,29.20
2019-03-20T04:54:30.836Z,28.70
2019-03-20T04:56:58.923Z,26.80
2019-03-20T04:59:27.053Z,23.70
2019-03-20T05:01:55.225Z,26.03
2019-03-20T05:04:23.455Z,29.00
2019-03-20T05:06:58.697Z,26.90
2019-03-20T05:09:21.628Z,30.73
2019-03-20T05:11:49.743Z,32.33
2019-03-20T05:14:17.970Z,30.97
2019-03-20T05:16:46.103Z,30.63
2019-03-20T05:19:14.248Z,29.03
2019-03-20T05:21:42.343Z,35.77
2019-03-20T05:24:10.482Z,32.23
2019-03-20T05:26:38.660Z,38.37
2019-03-20T05:29:06.797Z,34.27
2019-03-20T05:31:35.006Z,32.67
2019-03-20T05:34:03.114Z,34.23
2019-03-20T05:36:31.167Z,30.87
2019-03-20T05:38:59.259Z,36.57
2019-03-20T05:41:27.403Z,36.40
2019-03-20T05:43:55.557Z,37.63
2019-03-20T05:46:23.620Z,39.43
2019-03-20T05:48:51.892Z,40.17
2019-03-20T05:51:20.034Z,42.23
2019-03-20T05:53:48.327Z,45.13
2019-03-20T05:56:16.448Z,43.40
2019-03-20T05:58:44.429Z,39.00
2019-03-20T06:01:12.527Z,44.13
2019-03-20T06:03:40.520Z,40.40
2019-03-20T06:06:08.738Z,41.43
2019-03-20T06:08:37.180Z,40.87
2019-03-20T06:11:05.247Z,44.60
2019-03-20T06:13:34.483Z,37.90
2019-03-20T06:16:03.131Z,36.37
2019-03-20T06:18:31.180Z,37.63
2019-03-20T06:20:59.423Z,38.97
2019-03-20T06:23:27.494Z,39.97
2019-03-20T06:25:55.618Z,40.03
2019-03-20T06:28:23.701Z,36.30
2019-03-20T06:30:51.728Z,41.47
2019-03-20T06:33:19.947Z,41.13
2019-03-20T06:35:48.170Z,35.87
2019-03-20T06:38:16.265Z,33.83
2019-03-20T06:40:44.450Z,37.27
2019-03-20T06:43:12.488Z,33.50
2019-03-20T06:45:40.554Z,38.40
2019-03-20T06:48:08.735Z,35.13
2019-03-20T06:50:36.856Z,40.37
2019-03-20T06:53:04.986Z,44.57
2019-03-20T06:55:33.120Z,34.20
2019-03-20T06:58:02.262Z,40.17
2019-03-20T07:01:24.071Z,35.27
2019-03-20T07:04:12.902Z,38.53
2019-03-20T07:07:17.938Z,37.50
2019-03-20T07:10:30.519Z,38.20
2019-03-20T07:12:58.629Z,35.87
2019-03-20T07:15:26.671Z,38.80
2019-03-20T07:17:55.105Z,36.73
2019-03-20T07:20:23.237Z,39.87
2019-03-20T07:22:51.316Z,37.63
2019-03-20T07:25:19.478Z,39.47
2019-03-20T07:27:47.852Z,40.17
2019-03-20T07:30:15.991Z,35.80
2019-03-20T07:32:44.053Z,44.00
2019-03-20T07:35:12.166Z,41.50
2019-03-20T07:37:40.299Z,43.93
2019-03-20T07:40:09.016Z,46.67
2019-03-20T07:42:37.108Z,40.07
2019-03-20T07:45:06.950Z,43.67
2019-03-20T07:47:35.023Z,44.43
2019-03-20T07:50:04.214Z,39.90
2019-03-20T07:52:32.286Z,46.90
2019-03-20T07:55:00.465Z,47.17
2019-03-20T07:57:28.632Z,39.70
2019-03-20T07:59:56.768Z,43.07
2019-03-20T08:02:24.896Z,44.40
2019-03-20T08:04:53.095Z,40.23
2019-03-20T08:07:21.213Z,45.60
2019-03-20T08:09:49.342Z,45.47
2019-03-20T08:12:17.722Z,46.43
2019-03-20T08:14:45.878Z,42.70
2019-03-20T08:17:14.079Z,38.47
2019-03-20T08:19:42.113Z,46.63
2019-03-20T08:22:10.271Z,41.67
2019-03-20T08:24:38.496Z,46.60
2019-03-20T08:27:06.570Z,41.60
2019-03-20T08:29:34.674Z,46.60
2019-03-20T08:32:02.752Z,40.43
2019-03-20T08:34:30.988Z,41.83
2019-03-20T08:36:59.221Z,47.80
2019-03-20T08:39:27.329Z,44.27
2019-03-20T08:41:55.437Z,46.43
2019-03-20T08:44:23.536Z,38.90
2019-03-20T08:46:51.639Z,48.83
2019-03-20T08:49:19.934Z,46.87
2019-03-20T08:51:48.148Z,42.10
2019-03-20T08:54:16.184Z,45.93
2019-03-20T08:56:44.304Z,44.97
2019-03-20T08:59:12.561Z,41.63
2019-03-20T09:01:40.741Z,40.30
2019-03-20T09:04:08.812Z,45.40
2019-03-20T09:06:36.927Z,39.63
2019-03-20T09:09:07.666Z,43.60
2019-03-20T09:11:35.929Z,47.80
2019-03-20T09:14:04.414Z,42.53
2019-03-20T09:16:32.722Z,42.97
2019-03-20T09:19:00.835Z,41.87
2019-03-20T09:21:30.040Z,41.67
2019-03-20T09:23:58.171Z,41.53
2019-03-20T09:26:26.512Z,40.40
2019-03-20T09:28:54.697Z,39.53
2019-03-20T09:31:23.163Z,44.57
2019-03-20T09:33:51.346Z,42.13
2019-03-20T09:36:19.407Z,38.27
2019-03-20T09:38:47.504Z,42.30
2019-03-20T09:41:15.770Z,39.30
2019-03-20T09:43:43.854Z,40.00
2019-03-20T09:46:13.054Z,39.83
2019-03-20T09:48:41.303Z,39.57
2019-03-20T09:51:09.483Z,39.17
2019-03-20T09:53:38.736Z,40.50
2019-03-20T09:56:06.817Z,36.10
2019-03-20T09:58:34.931Z,38.47
2019-03-20T10:01:02.941Z,43.00
2019-03-20T10:03:31.201Z,39.70
2019-03-20T10:06:00.476Z,41.77
2019-03-20T10:08:28.573Z,41.90
2019-03-20T10:10:56.675Z,40.60
2019-03-20T10:13:24.802Z,36.50
2019-03-20T10:15:52.946Z,43.87
2019-03-20T10:18:21.226Z,39.67
2019-03-20T10:20:49.425Z,41.67
2019-03-20T10:23:17.524Z,37.80
2019-03-20T10:25:45.673Z,37.43
2019-03-20T10:28:13.849Z,42.30
2019-03-20T10:30:42.013Z,44.17
2019-03-20T10:33:10.118Z,38.10
2019-03-20T10:35:38.216Z,40.50
2019-03-20T10:38:06.281Z,40.33
2019-03-20T10:40:34.457Z,44.83
2019-03-20T10:43:02.627Z,41.60
2019-03-20T10:45:30.709Z,39.93
2019-03-20T10:47:58.885Z,41.40
2019-03-20T10:50:27.086Z,40.43
2019-03-20T10:52:55.205Z,39.47
2019-03-20T10:55:23.386Z,40.60
2019-03-20T10:57:51.475Z,40.80
2019-03-20T11:00:20.436Z,46.07
2019-03-20T11:02:48.681Z,41.43
2019-03-20T11:05:17.420Z,40.80
2019-03-20T11:07:45.533Z,45.07
2019-03-20T11:10:18.813Z,41.07
2019-03-20T11:12:46.936Z,44.63
2019-03-20T11:15:16.228Z,44.63
2019-03-20T11:17:44.491Z,43.83
2019-03-20T11:20:14.645Z,43.77
2019-03-20T11:22:42.935Z,43.90
2019-03-20T11:25:13.158Z,48.33
2019-03-20T11:27:41.242Z,47.67
2019-03-20T11:30:19.088Z,40.50
2019-03-20T11:32:47.367Z,42.47
2019-03-20T11:35:15.642Z,38.90
2019-03-20T11:37:43.793Z,40.10
2019-03-20T11:40:18.478Z,42.23
2019-03-20T11:42:46.624Z,44.27
2019-03-20T11:45:14.667Z,42.03
2019-03-20T11:47:42.765Z,41.00
2019-03-20T11:50:16.101Z,44.23
2019-03-20T11:52:44.404Z,44.40
2019-03-20T11:55:12.856Z,44.77
2019-03-20T11:57:41.072Z,41.00
2019-03-20T12:00:12.452Z,41.13
2019-03-20T12:02:40.556Z,40.93
2019-03-20T12:05:09.235Z,41.70
2019-03-20T12:07:37.487Z,36.70
2019-03-20T12:10:07.095Z,46.20
2019-03-20T12:12:35.173Z,46.20
2019-03-20T12:15:03.700Z,43.37
2019-03-20T12:17:33.047Z,46.80
2019-03-20T12:20:01.141Z,45.53
2019-03-20T12:22:29.395Z,45.50
2019-03-20T12:24:57.572Z,51.37
2019-03-20T12:27:25.908Z,45.87
2019-03-20T12:29:54.227Z,48.70
2019-03-20T12:32:22.275Z,46.47
2019-03-20T12:34:50.414Z,46.93
2019-03-20T12:37:20.699Z,46.17
2019-03-20T12:39:53.148Z,47.90
2019-03-20T12:42:18.840Z,52.77
2019-03-20T12:44:47.014Z,45.03
2019-03-20T12:47:15.141Z,46.97
2019-03-20T12:49:43.306Z,45.20
2019-03-20T12:52:11.350Z,45.73
2019-03-20T12:54:39.917Z,47.30
2019-03-20T12:57:08.058Z,45.77
2019-03-20T12:59:36.455Z,47.57
2019-03-20T13:02:04.614Z,43.97
2019-03-20T13:04:32.849Z,45.23
2019-03-20T13:07:00.977Z,48.77
2019-03-20T13:09:29.137Z,49.13
2019-03-20T13:11:57.220Z,43.90
2019-03-20T13:14:25.356Z,50.53
2019-03-20T13:16:53.580Z,49.63
2019-03-20T13:19:21.739Z,50.87
2019-03-20T13:21:51.317Z,48.90
2019-03-20T13:24:19.389Z,50.53
2019-03-20T13:26:47.485Z,50.83
2019-03-20T13:29:15.633Z,50.13
2019-03-20T13:31:43.886Z,52.23
2019-03-20T13:34:11.987Z,53.03
2019-03-20T13:36:40.271Z,50.73
2019-03-20T13:39:08.308Z,51.77
2019-03-20T13:41:36.555Z,58.90
2019-03-20T13:44:04.639Z,56.33
2019-03-20T13:46:32.678Z,54.17
2019-03-20T13:49:00.867Z,54.47
2019-03-20T13:51:28.976Z,58.03
2019-03-20T13:53:57.100Z,55.33
2019-03-20T13:56:25.381Z,53.67
2019-03-20T13:58:53.800Z,53.70
2019-03-20T14:01:22.021Z,58.07
2019-03-20T14:03:50.206Z,50.83
2019-03-20T14:06:18.334Z,52.70
2019-03-20T14:08:46.494Z,52.10
2019-03-20T14:11:14.605Z,54.77
2019-03-20T14:13:42.722Z,55.37
2019-03-20T14:16:11.186Z,52.00
2019-03-20T14:18:39.291Z,54.17
2019-03-20T14:21:07.455Z,55.20
2019-03-20T14:23:35.552Z,63.10
2019-03-20T14:26:03.887Z,60.43
2019-03-20T14:28:32.113Z,59.33
2019-03-20T14:31:00.187Z,65.50
2019-03-20T14:33:28.277Z,56.13
2019-03-20T14:35:56.372Z,59.97
2019-03-20T14:38:24.418Z,58.83
2019-03-20T14:40:53.884Z,58.60
2019-03-20T14:43:21.976Z,58.27
2019-03-20T14:45:50.403Z,61.23
2019-03-20T14:48:18.524Z,59.97
2019-03-20T14:50:46.634Z,61.33
2019-03-20T14:53:14.701Z,56.77
2019-03-20T14:55:42.770Z,63.50
2019-03-20T14:58:11.017Z,63.30
2019-03-20T15:00:39.253Z,59.57
2019-03-20T15:03:07.395Z,63.60
2019-03-20T15:05:35.628Z,57.60
2019-03-20T15:08:03.818Z,58.10
2019-03-20T15:10:31.942Z,62.70
2019-03-20T15:13:00.156Z,57.27
2019-03-20T15:15:38.525Z,55.23
2019-03-20T15:18:06.861Z,63.13
2019-03-20T15:20:35.368Z,61.73
2019-03-20T15:23:03.837Z,58.37
2019-03-20T15:25:32.266Z,53.73
2019-03-20T15:28:00.353Z,60.83
2019-03-20T15:30:29.727Z,60.33
2019-03-20T15:32:57.955Z,66.30
2019-03-20T15:35:26.097Z,61.90
2019-03-20T15:37:54.251Z,55.60
2019-03-20T15:40:22.478Z,56.23
2019-03-20T15:42:50.670Z,57.63
2019-03-20T15:45:18.820Z,61.97
2019-03-20T15:47:46.954Z,59.20
2019-03-20T15:50:15.773Z,57.13
2019-03-20T15:52:43.898Z,60.27
2019-03-20T15:55:18.723Z,58.70
2019-03-20T15:57:46.900Z,59.93
2019-03-20T16:00:17.002Z,61.90
2019-03-20T16:02:45.860Z,55.43
2019-03-20T16:05:14.953Z,68.13
2019-03-20T16:07:43.985Z,56.07
2019-03-20T16:10:16.001Z,63.73
2019-03-20T16:12:44.223Z,60.93
2019-03-20T16:15:15.098Z,61.03
2019-03-20T16:17:43.326Z,63.93
2019-03-20T16:20:12.327Z,61.60
2019-03-20T16:22:40.407Z,65.63
2019-03-20T16:25:09.266Z,63.17
2019-03-20T16:27:37.488Z,59.73
2019-03-20T16:30:08.933Z,63.17
2019-03-20T16:32:36.953Z,65.77
2019-03-20T16:35:05.702Z,73.53
2019-03-20T16:37:34.005Z,64.80
2019-03-20T16:40:02.389Z,64.57
2019-03-20T16:42:30.586Z,63.83
2019-03-20T16:44:58.903Z,64.07
2019-03-20T16:47:26.930Z,58.37
2019-03-20T16:49:55.007Z,67.40
2019-03-20T16:52:23.069Z,68.57
2019-03-20T16:54:51.327Z,70.30
2019-03-20T16:57:21.823Z,70.60
2019-03-20T16:59:49.904Z,62.30
2019-03-20T17:02:18.078Z,69.93
2019-03-20T17:04:46.244Z,70.93
2019-03-20T17:07:14.566Z,65.87
2019-03-20T17:09:42.703Z,75.63
2019-03-20T17:12:11.087Z,81.13
2019-03-20T17:14:39.263Z,76.83
2019-03-20T17:17:07.416Z,78.77
2019-03-20T17:19:35.679Z,78.80
2019-03-20T17:22:03.884Z,74.37
2019-03-20T17:24:31.937Z,73.90
2019-03-20T17:27:00.068Z,74.63
2019-03-20T17:29:28.209Z,76.87
2019-03-20T17:31:56.250Z,75.17
2019-03-20T17:34:24.270Z,76.00
2019-03-20T17:36:52.382Z,72.33
2019-03-20T17:39:20.488Z,70.87
2019-03-20T17:41:48.624Z,77.27
2019-03-20T17:44:17.437Z,75.50
2019-03-20T17:46:45.501Z,76.67
2019-03-20T17:49:13.760Z,71.37
2019-03-20T17:51:42.078Z,73.03
2019-03-20T17:54:10.289Z,79.60
2019-03-20T17:56:38.693Z,73.00
2019-03-20T17:59:08.207Z,76.03
2019-03-20T18:01:36.347Z,75.37
2019-03-20T18:04:04.618Z,79.90
2019-03-20T18:06:32.810Z,76.27
2019-03-20T18:09:01.141Z,78.17
2019-03-20T18:11:30.473Z,83.73
2019-03-20T18:13:58.549Z,75.33
2019-03-20T18:16:26.832Z,75.23
2019-03-20T18:18:55.070Z,73.70
2019-03-20T18:21:27.239Z,87.07
2019-03-20T18:23:55.776Z,77.37
2019-03-20T18:26:24.025Z,83.70
2019-03-20T18:28:52.249Z,78.10
2019-03-20T18:31:20.477Z,81.73
2019-03-20T18:33:48.601Z,83.70
2019-03-20T18:36:16.988Z,80.00
2019-03-20T18:38:45.059Z,83.00
2019-03-20T18:41:13.369Z,79.20
2019-03-20T18:43:41.508Z,82.40
2019-03-20T18:46:09.678Z,76.43
2019-03-20T18:48:38.064Z,84.70
2019-03-20T18:51:06.278Z,79.13
2019-03-20T18:53:34.452Z,88.30
2019-03-20T18:56:02.686Z,85.43
2019-03-20T18:58:30.767Z,73.43
2019-03-20T19:00:59.038Z,83.17
2019-03-20T19:03:27.463Z,78.33
2019-03-20T19:06:03.781Z,74.30
2019-03-20T19:08:32.126Z,80.67
2019-03-20T19:11:00.573Z,78.87
2019-03-20T19:13:28.848Z,75.47
2019-03-20T19:15:57.007Z,80.33
2019-03-20T19:18:25.420Z,80.27
2019-03-20T19:20:53.600Z,76.70
2019-03-20T19:23:21.644Z,82.80
2019-03-20T19:25:50.861Z,83.97
2019-03-20T19:28:18.987Z,78.70
2019-03-20T19:30:47.031Z,81.60
2019-03-20T19:33:15.527Z,77.83
2019-03-20T19:35:44.071Z,79.23
2019-03-20T19:38:12.120Z,78.13
2019-03-20T19:40:40.314Z,80.27
2019-03-20T19:43:08.581Z,84.40
2019-03-20T19:45:36.645Z,78.87
2019-03-20T19:48:04.836Z,85.97
2019-03-20T19:50:32.999Z,85.07
2019-03-20T19:53:01.082Z,85.67
2019-03-20T19:55:29.316Z,80.37
2019-03-20T19:57:57.371Z,85.53
2019-03-20T20:00:25.740Z,80.13
2019-03-20T20:02:54.095Z,80.97
2019-03-20T20:05:22.323Z,78.57
2019-03-20T20:07:50.418Z,85.73
2019-03-20T20:10:18.821Z,87.00
2019-03-20T20:12:47.150Z,89.37
2019-03-20T20:15:18.293Z,84.67
2019-03-20T20:17:47.172Z,85.40
2019-03-20T20:20:17.177Z,85.10
2019-03-20T20:22:46.308Z,81.47
2019-03-20T20:25:14.486Z,84.10
2019-03-20T20:27:42.777Z,86.60
2019-03-20T20:30:14.215Z,84.40
2019-03-20T20:32:42.465Z,88.67
2019-03-20T20:35:11.459Z,90.97
2019-03-20T20:37:39.945Z,88.33
2019-03-20T20:40:10.583Z,85.27
2019-03-20T20:42:43.149Z,92.63
2019-03-20T20:45:09.219Z,85.70
2019-03-20T20:47:37.307Z,85.40
2019-03-20T20:50:06.414Z,83.57
2019-03-20T20:52:34.694Z,85.63
2019-03-20T20:55:03.858Z,90.17
2019-03-20T20:57:32.474Z,85.07
2019-03-20T21:00:00.668Z,84.20
2019-03-20T21:02:29.002Z,86.30
2019-03-20T21:04:57.459Z,85.40
2019-03-20T21:07:26.649Z,87.23
2019-03-20T21:09:55.876Z,93.40
2019-03-20T21:12:24.052Z,86.40
2019-03-20T21:14:52.271Z,89.23
2019-03-20T21:17:46.282Z,82.60
2019-03-20T21:20:15.204Z,73.53
2019-03-20T21:23:49.090Z,81.60
2019-03-20T21:26:18.675Z,81.17
2019-03-20T21:29:53.732Z,86.23
2019-03-20T21:32:36.141Z,80.90
2019-03-20T21:36:16.612Z,86.53
2019-03-20T21:38:45.839Z,81.10
2019-03-20T21:42:10.474Z,77.90
2019-03-20T21:45:45.776Z,79.43
2019-03-20T21:48:15.072Z,80.23
2019-03-20T21:51:15.029Z,76.30
2019-03-20T21:54:33.390Z,81.73
2019-03-20T21:57:52.266Z,79.07
2019-03-20T22:01:15.043Z,83.93
2019-03-20T22:03:44.235Z,80.80
2019-03-20T22:07:21.082Z,85.80
2019-03-20T22:10:50.780Z,85.57
2019-03-20T22:13:40.131Z,86.23
2019-03-20T22:17:17.268Z,95.73
2019-03-20T22:20:43.874Z,93.33
2019-03-20T22:24:21.525Z,96.27
2019-03-20T22:27:31.993Z,86.67
2019-03-20T22:30:00.954Z,92.10
2019-03-20T22:33:28.083Z,85.13
2019-03-20T22:36:13.637Z,88.10
2019-03-20T22:40:02.739Z,91.50
2019-03-20T22:42:53.507Z,92.53
2019-03-20T22:46:48.010Z,92.17
2019-03-20T22:50:13.130Z,81.80
2019-03-20T22:54:06.551Z,94.40
2019-03-20T22:56:59.286Z,91.90
2019-03-20T22:59:29.178Z,92.03
2019-03-20T23:02:36.668Z,88.67
2019-03-20T23:05:07.164Z,93.07
2019-03-20T23:07:36.029Z,94.60
2019-03-20T23:10:08.778Z,98.53
2019-03-20T23:12:37.658Z,98.53
2019-03-20T23:15:10.110Z,102.97
2019-03-20T23:17:38.942Z,100.23
2019-03-20T23:20:11.086Z,106.10
2019-03-20T23:22:39.909Z,103.20
2019-03-20T23:25:09.276Z,114.93
2019-03-20T23:27:38.141Z,111.37
2019-03-20T23:30:13.137Z,110.83
2019-03-20T23:32:42.106Z,111.63
2019-03-20T23:35:11.067Z,119.97
2019-03-20T23:37:40.081Z,118.10
2019-03-20T23:40:11.251Z,121.27
2019-03-20T23:42:40.383Z,129.37
2019-03-20T23:45:11.404Z,126.27
2019-03-20T23:47:53.051Z,125.33
2019-03-20T23:50:21.944Z,129.60
2019-03-20T23:52:50.744Z,123.53
2019-03-20T23:55:19.754Z,133.20
2019-03-20T23:57:48.699Z,129.50
